createdAt,value
2019-02-24T00:01:16.695Z,42.00
2019-02-24T00:03:45.263Z,41.80
2019-02-24T00:06:13.776Z,41.60
2019-02-24T00:08:42.262Z,41.90
2019-02-24T00:11:10.974Z,42.40
2019-02-24T00:13:39.557Z,42.90
2019-02-24T00:16:08.853Z,42.60
2019-02-24T00:18:37.543Z,43.00
2019-02-24T00:21:06.126Z,43.30
2019-02-24T00:23:34.700Z,43.10
2019-02-24T00:26:04.694Z,43.20
2019-02-24T00:28:33.456Z,43.10
2019-02-24T00:31:02.065Z,43.00
2019-02-24T00:33:30.772Z,43.00
2019-02-24T00:35:59.387Z,43.40
2019-02-24T00:38:27.904Z,43.70
2019-02-24T00:40:56.433Z,44.10
2019-02-24T00:43:24.941Z,44.70
2019-02-24T00:45:53.597Z,45.10
2019-02-24T00:48:22.171Z,45.10
2019-02-24T00:50:50.774Z,45.00
2019-02-24T00:53:19.345Z,45.70
2019-02-24T00:55:47.887Z,45.50
2019-02-24T00:58:16.607Z,45.20
2019-02-24T01:00:45.341Z,45.80
2019-02-24T01:03:13.829Z,46.20
2019-02-24T01:05:42.413Z,46.40
2019-02-24T01:08:10.945Z,46.20
2019-02-24T01:10:39.506Z,46.90
2019-02-24T01:13:08.076Z,47.50
2019-02-24T01:15:36.696Z,48.10
2019-02-24T01:18:05.183Z,48.60
2019-02-24T01:20:33.765Z,49.10
2019-02-24T01:23:02.264Z,49.80
2019-02-24T01:25:35.433Z,49.60
2019-02-24T01:28:08.531Z,49.70
2019-02-24T01:30:37.135Z,48.90
2019-02-24T01:33:05.804Z,49.40
2019-02-24T01:35:34.286Z,49.70
2019-02-24T01:38:02.826Z,50.20
2019-02-24T01:40:31.467Z,50.00
2019-02-24T01:43:00.331Z,50.00
2019-02-24T01:45:29.010Z,50.10
2019-02-24T01:47:57.796Z,50.30
2019-02-24T01:50:26.445Z,50.40
2019-02-24T01:52:55.178Z,50.00
2019-02-24T01:55:24.008Z,49.90
2019-02-24T01:57:52.662Z,50.30
2019-02-24T02:00:21.221Z,50.60
2019-02-24T02:02:49.695Z,50.10
2019-02-24T02:05:18.292Z,50.10
2019-02-24T02:07:46.911Z,50.20
2019-02-24T02:10:15.598Z,50.70
2019-02-24T02:12:44.087Z,50.80
2019-02-24T02:15:14.696Z,51.20
2019-02-24T02:17:43.189Z,51.60
2019-02-24T02:20:14.815Z,51.90
2019-02-24T02:22:43.808Z,51.90
2019-02-24T02:25:12.395Z,52.30
2019-02-24T02:27:41.077Z,52.00
2019-02-24T02:30:16.241Z,52.40
2019-02-24T02:32:44.905Z,52.70
2019-02-24T02:35:13.584Z,53.70
2019-02-24T02:37:42.235Z,53.30
2019-02-24T02:40:10.794Z,52.50
2019-02-24T02:42:39.714Z,51.70
2019-02-24T02:45:08.689Z,51.40
2019-02-24T02:47:37.264Z,51.50
2019-02-24T02:50:06.442Z,51.40
2019-02-24T02:52:34.971Z,51.40
2019-02-24T02:55:03.806Z,51.60
2019-02-24T02:57:32.551Z,52.50
2019-02-24T03:00:01.264Z,52.80
2019-02-24T03:02:29.827Z,52.90
2019-02-24T03:04:58.483Z,53.40
2019-02-24T03:07:31.414Z,53.90
2019-02-24T03:09:59.879Z,54.10
2019-02-24T03:12:28.525Z,54.00
2019-02-24T03:14:57.256Z,54.30
2019-02-24T03:17:26.233Z,53.80
2019-02-24T03:20:00.307Z,54.50
2019-02-24T03:22:29.059Z,54.10
2019-02-24T03:24:58.344Z,53.80
2019-02-24T03:27:26.874Z,53.60
2019-02-24T03:29:55.627Z,53.60
2019-02-24T03:32:24.257Z,54.20
2019-02-24T03:34:52.862Z,54.50
2019-02-24T03:37:21.516Z,55.10
2019-02-24T03:39:50.011Z,55.50
2019-02-24T03:42:18.543Z,55.80
2019-02-24T03:44:47.126Z,55.90
2019-02-24T03:47:15.817Z,56.00
2019-02-24T03:49:44.599Z,55.60
2019-02-24T03:52:13.285Z,56.00
2019-02-24T03:54:42.123Z,56.10
2019-02-24T03:57:10.760Z,56.50
2019-02-24T03:59:39.342Z,56.80
2019-02-24T04:02:08.110Z,56.80
2019-02-24T04:04:36.685Z,56.80
2019-02-24T04:07:05.257Z,56.90
2019-02-24T04:09:33.855Z,57.20
2019-02-24T04:12:02.557Z,57.20
2019-02-24T04:14:31.225Z,57.30
2019-02-24T04:17:00.001Z,57.20
2019-02-24T04:19:28.687Z,57.20
2019-02-24T04:21:57.351Z,57.10
2019-02-24T04:24:25.958Z,56.50
2019-02-24T04:26:54.482Z,56.70
2019-02-24T04:29:25.170Z,56.90
2019-02-24T04:31:53.382Z,57.30
2019-02-24T04:34:21.949Z,57.60
2019-02-24T04:36:50.574Z,57.60
2019-02-24T04:39:19.102Z,57.30
2019-02-24T04:41:47.680Z,56.80
2019-02-24T04:44:16.410Z,57.20
2019-02-24T04:46:44.986Z,57.70
2019-02-24T04:49:13.472Z,57.50
2019-02-24T04:51:42.297Z,57.80
2019-02-24T04:54:11.258Z,58.20
2019-02-24T04:56:39.890Z,58.50
2019-02-24T04:59:34.848Z,58.60
2019-02-24T05:04:51.662Z,58.20
2019-02-24T05:07:20.230Z,57.70
2019-02-24T05:09:49.008Z,57.30
2019-02-24T05:12:17.569Z,56.80
2019-02-24T05:14:46.130Z,55.90
2019-02-24T05:17:14.635Z,55.80
2019-02-24T05:19:43.268Z,55.50
2019-02-24T05:22:11.887Z,56.10
2019-02-24T05:24:40.571Z,56.90
2019-02-24T05:27:09.096Z,57.40
2019-02-24T05:29:45.370Z,57.80
2019-02-24T05:32:08.326Z,57.80
2019-02-24T05:34:37.040Z,57.50
2019-02-24T05:37:05.523Z,57.60
2019-02-24T05:39:37.552Z,57.90
2019-02-24T05:42:10.294Z,58.30
2019-02-24T05:44:40.713Z,58.60
2019-02-24T05:47:10.981Z,58.80
2019-02-24T05:49:43.888Z,58.80
2019-02-24T05:52:23.590Z,59.00
2019-02-24T05:54:52.303Z,59.20
2019-02-24T06:00:37.422Z,59.40
2019-02-24T06:03:10.895Z,59.30
2019-02-24T06:05:50.475Z,59.10
2019-02-24T06:08:19.105Z,59.10
2019-02-24T06:10:47.743Z,59.50
2019-02-24T06:13:16.272Z,59.50
2019-02-24T06:15:44.937Z,59.50
2019-02-24T06:18:13.553Z,58.90
2019-02-24T06:20:59.597Z,58.30
2019-02-24T06:23:37.461Z,58.00
2019-02-24T06:26:13.511Z,58.10
2019-02-24T06:28:42.169Z,58.10
2019-02-24T06:31:10.713Z,58.10
2019-02-24T06:33:39.289Z,58.30
2019-02-24T06:36:07.911Z,58.50
2019-02-24T06:38:36.819Z,58.20
2019-02-24T06:41:08.069Z,57.80
2019-02-24T06:43:41.158Z,57.90
2019-02-24T06:46:09.791Z,57.80
2019-02-24T06:48:41.452Z,57.70
2019-02-24T06:51:11.137Z,57.30
2019-02-24T06:53:39.861Z,57.40
2019-02-24T06:56:08.508Z,58.20
2019-02-24T06:58:37.142Z,58.70
2019-02-24T07:01:05.969Z,59.10
2019-02-24T07:03:34.995Z,59.00
2019-02-24T07:06:03.638Z,58.70
2019-02-24T07:08:34.339Z,58.40
2019-02-24T07:11:02.847Z,58.10
2019-02-24T07:13:31.394Z,57.50
2019-02-24T07:15:59.901Z,57.30
2019-02-24T07:18:28.473Z,57.60
2019-02-24T07:20:58.594Z,58.10
2019-02-24T07:23:27.306Z,57.50
2019-02-24T07:25:55.783Z,56.90
2019-02-24T07:28:24.379Z,56.00
2019-02-24T07:30:53.051Z,55.20
2019-02-24T07:33:23.792Z,54.10
2019-02-24T07:35:52.450Z,53.90
2019-02-24T07:38:22.475Z,52.90
2019-02-24T07:40:51.277Z,51.60
2019-02-24T07:43:19.800Z,50.40
2019-02-24T07:45:48.356Z,49.60
2019-02-24T07:48:17.133Z,49.00
2019-02-24T07:50:45.918Z,48.80
2019-02-24T07:53:18.190Z,48.30
2019-02-24T07:55:49.794Z,48.60
2019-02-24T07:58:23.129Z,48.20
2019-02-24T08:00:54.591Z,48.00
2019-02-24T08:03:23.555Z,47.70
2019-02-24T08:05:52.011Z,47.50
2019-02-24T08:08:20.725Z,47.60
2019-02-24T08:10:49.304Z,47.30
2019-02-24T08:13:17.810Z,47.30
2019-02-24T08:15:50.756Z,47.90
2019-02-24T08:18:51.934Z,47.60
2019-02-24T08:21:20.427Z,48.00
2019-02-24T08:24:29.361Z,47.20
2019-02-24T08:32:58.273Z,47.20
2019-02-24T08:35:27.104Z,46.50
2019-02-24T08:37:55.799Z,45.90
2019-02-24T08:40:26.901Z,45.50
2019-02-24T08:42:55.609Z,45.40
2019-02-24T08:45:24.112Z,45.40
2019-02-24T08:47:52.697Z,45.10
2019-02-24T08:50:21.336Z,44.00
2019-02-24T08:52:50.018Z,44.00
2019-02-24T08:55:18.948Z,43.80
2019-02-24T08:57:54.502Z,43.70
2019-02-24T09:00:23.185Z,44.00
2019-02-24T09:02:52.581Z,41.30
2019-02-24T09:05:23.071Z,39.60
2019-02-24T09:07:54.016Z,37.50
2019-02-24T09:10:22.695Z,34.50
2019-02-24T09:12:59.271Z,33.90
2019-02-24T09:15:25.089Z,32.30
2019-02-24T09:17:54.236Z,32.30
2019-02-24T09:20:22.786Z,32.80
2019-02-24T09:22:55.650Z,33.50
2019-02-24T09:25:24.289Z,33.50
2019-02-24T09:27:53.118Z,34.10
2019-02-24T09:30:22.386Z,34.20
2019-02-24T09:32:55.823Z,34.80
2019-02-24T09:35:25.735Z,34.30
2019-02-24T09:37:54.606Z,35.10
2019-02-24T09:40:23.169Z,35.80
2019-02-24T09:42:51.854Z,36.20
2019-02-24T09:45:23.292Z,36.40
2019-02-24T09:48:02.121Z,36.60
2019-02-24T09:50:34.321Z,36.90
2019-02-24T09:53:03.596Z,36.40
2019-02-24T09:55:38.884Z,36.60
2019-02-24T09:58:09.473Z,36.80
2019-02-24T10:00:38.863Z,36.70
2019-02-24T10:03:10.938Z,36.20
2019-02-24T10:08:33.739Z,35.40
2019-02-24T10:11:04.232Z,34.30
2019-02-24T10:13:32.836Z,34.10
2019-02-24T10:16:01.358Z,34.00
2019-02-24T10:18:29.935Z,34.20
2019-02-24T10:20:58.585Z,33.80
2019-02-24T10:23:27.228Z,33.80
2019-02-24T10:25:56.051Z,34.00
2019-02-24T10:28:25.055Z,33.70
2019-02-24T10:30:53.650Z,32.50
2019-02-24T10:33:22.490Z,31.30
2019-02-24T10:35:51.203Z,30.00
2019-02-24T10:38:19.787Z,28.70
2019-02-24T10:40:49.008Z,27.30
2019-02-24T10:43:17.681Z,26.80
2019-02-24T10:45:46.831Z,26.60
2019-02-24T10:48:46.044Z,26.80
2019-02-24T10:54:09.967Z,26.70
2019-02-24T10:56:39.369Z,27.20
2019-02-24T10:59:08.162Z,28.20
2019-02-24T11:01:37.253Z,29.10
2019-02-24T11:04:05.915Z,30.00
2019-02-24T11:06:34.626Z,29.90
2019-02-24T11:09:06.686Z,30.00
2019-02-24T11:11:35.679Z,30.10
2019-02-24T11:14:04.378Z,29.00
2019-02-24T11:16:32.863Z,29.10
2019-02-24T11:19:01.394Z,28.20
2019-02-24T11:21:29.893Z,28.80
2019-02-24T11:23:58.822Z,28.40
2019-02-24T11:26:28.217Z,28.20
2019-02-24T11:28:57.498Z,28.60
2019-02-24T11:31:27.147Z,29.60
2019-02-24T11:34:03.499Z,30.00
2019-02-24T11:36:41.103Z,31.40
2019-02-24T11:39:12.163Z,31.80
2019-02-24T11:45:17.501Z,30.70
2019-02-24T11:54:51.967Z,28.20
2019-02-24T11:57:27.101Z,28.40
2019-02-24T11:59:57.323Z,28.50
2019-02-24T12:05:10.364Z,29.80
2019-02-24T12:07:53.284Z,30.70
2019-02-24T12:13:17.060Z,30.80
2019-02-24T12:15:45.589Z,31.40
2019-02-24T12:18:14.547Z,31.00
2019-02-24T12:20:44.969Z,30.90
2019-02-24T12:23:15.349Z,30.80
2019-02-24T12:25:44.084Z,30.20
2019-02-24T12:28:12.644Z,29.80
2019-02-24T12:30:43.100Z,29.10
2019-02-24T12:33:13.523Z,29.70
2019-02-24T12:39:04.857Z,29.80
2019-02-24T12:41:38.525Z,29.70
2019-02-24T12:44:24.038Z,29.70
2019-02-24T12:47:02.295Z,29.80
2019-02-24T12:52:26.861Z,31.10
2019-02-24T12:55:11.756Z,30.10
2019-02-24T12:57:58.536Z,29.70
2019-02-24T13:01:11.677Z,29.70
2019-02-24T13:03:44.341Z,30.20
2019-02-24T13:06:13.752Z,29.40
2019-02-24T13:08:44.448Z,29.60
2019-02-24T13:11:14.595Z,29.70
2019-02-24T13:13:43.282Z,29.00
2019-02-24T13:16:12.432Z,29.80
2019-02-24T13:18:45.728Z,31.00
2019-02-24T13:32:44.648Z,30.90
2019-02-24T13:58:44.101Z,29.00
2019-02-24T14:05:03.907Z,26.80
2019-02-24T14:21:12.941Z,25.50
2019-02-24T14:23:42.384Z,25.40
2019-02-24T14:26:10.888Z,25.50
2019-02-24T14:28:39.717Z,24.60
2019-02-24T14:31:08.230Z,24.30
2019-02-24T14:33:37.088Z,23.90
2019-02-24T14:36:05.670Z,23.80
2019-02-24T14:38:34.452Z,23.40
2019-02-24T14:41:03.594Z,23.20
2019-02-24T14:43:32.200Z,22.20
2019-02-24T14:46:00.698Z,21.40
2019-02-24T14:48:29.187Z,21.20
2019-02-24T14:50:57.710Z,21.40
2019-02-24T14:53:26.195Z,21.80
2019-02-24T14:55:54.694Z,21.20
2019-02-24T14:58:25.321Z,20.20
2019-02-24T15:00:53.827Z,20.30
2019-02-24T15:03:22.320Z,20.30
2019-02-24T15:05:50.819Z,19.90
2019-02-24T15:08:19.313Z,20.70
2019-02-24T15:10:48.353Z,20.20
2019-02-24T15:13:17.111Z,21.10
2019-02-24T15:15:45.588Z,21.00
2019-02-24T15:18:17.400Z,20.50
2019-02-24T15:20:45.931Z,19.90
2019-02-24T15:23:14.528Z,19.40
2019-02-24T15:25:43.210Z,19.50
2019-02-24T15:28:11.707Z,19.60
2019-02-24T15:30:42.240Z,19.40
2019-02-24T15:33:10.758Z,20.30
2019-02-24T15:35:43.546Z,20.30
2019-02-24T15:38:12.540Z,21.20
2019-02-24T15:40:41.464Z,21.40
2019-02-24T15:43:10.006Z,20.90
2019-02-24T15:45:38.588Z,20.60
2019-02-24T15:48:07.177Z,19.70
2019-02-24T15:50:35.796Z,20.20
2019-02-24T15:53:04.260Z,20.80
2019-02-24T15:55:32.841Z,21.40
2019-02-24T15:58:01.465Z,22.40
2019-02-24T16:00:30.016Z,23.60
2019-02-24T16:03:01.638Z,24.50
2019-02-24T16:05:28.672Z,25.60
2019-02-24T16:07:57.157Z,26.60
2019-02-24T16:10:25.635Z,27.80
2019-02-24T16:12:54.160Z,28.60
2019-02-24T16:15:27.971Z,29.70
2019-02-24T16:17:56.471Z,30.60
2019-02-24T16:20:30.772Z,31.80
2019-02-24T16:22:59.286Z,32.60
2019-02-24T16:25:27.778Z,33.10
2019-02-24T16:27:56.264Z,32.80
2019-02-24T16:30:24.768Z,33.60
2019-02-24T16:32:53.278Z,34.20
2019-02-24T16:35:21.771Z,34.40
2019-02-24T16:37:50.262Z,34.50
2019-02-24T16:40:21.325Z,34.70
2019-02-24T16:42:49.807Z,34.80
2019-02-24T16:45:18.309Z,34.90
2019-02-24T16:47:46.802Z,35.20
2019-02-24T16:50:17.786Z,35.60
2019-02-24T16:52:46.268Z,35.60
2019-02-24T16:55:15.974Z,35.80
2019-02-24T16:57:44.600Z,36.30
2019-02-24T17:00:18.618Z,36.30
2019-02-24T17:02:46.428Z,37.30
2019-02-24T17:05:14.945Z,37.50
2019-02-24T17:07:43.431Z,37.30
2019-02-24T17:10:17.444Z,37.10
2019-02-24T17:12:45.218Z,37.30
2019-02-24T17:15:13.769Z,38.00
2019-02-24T17:17:42.624Z,37.90
2019-02-24T17:20:18.964Z,38.60
2019-02-24T17:22:47.601Z,38.70
2019-02-24T17:25:16.069Z,39.10
2019-02-24T17:27:44.700Z,38.80
2019-02-24T17:30:15.553Z,38.60
2019-02-24T17:32:44.050Z,39.30
2019-02-24T17:35:18.869Z,39.30
2019-02-24T17:37:47.460Z,39.30
2019-02-24T17:40:19.531Z,39.90
2019-02-24T17:42:48.292Z,40.00
2019-02-24T17:45:16.760Z,39.90
2019-02-24T17:47:45.246Z,40.10
2019-02-24T17:50:14.689Z,40.40
2019-02-24T17:52:44.893Z,40.60
2019-02-24T17:55:14.359Z,41.00
2019-02-24T17:57:44.618Z,41.30
2019-02-24T18:00:25.958Z,42.10
2019-02-24T18:02:54.439Z,42.10
2019-02-24T18:05:22.946Z,43.20
2019-02-24T18:07:54.025Z,43.30
2019-02-24T18:10:25.626Z,43.40
2019-02-24T18:12:54.146Z,43.80
2019-02-24T18:15:22.697Z,43.70
2019-02-24T18:17:51.213Z,43.80
2019-02-24T18:20:21.358Z,44.00
2019-02-24T18:22:49.858Z,43.50
2019-02-24T18:25:18.340Z,44.00
2019-02-24T18:27:46.840Z,44.40
2019-02-24T18:30:26.274Z,44.00
2019-02-24T18:32:54.766Z,44.10
2019-02-24T18:35:23.232Z,44.20
2019-02-24T18:37:51.824Z,44.60
2019-02-24T18:40:20.295Z,44.60
2019-02-24T18:42:48.796Z,44.90
2019-02-24T18:45:17.301Z,44.70
2019-02-24T18:47:45.857Z,45.10
2019-02-24T18:50:15.593Z,45.60
2019-02-24T18:52:44.152Z,45.40
2019-02-24T18:55:13.107Z,45.20
2019-02-24T18:57:41.655Z,45.20
2019-02-24T19:00:14.135Z,45.20
2019-02-24T19:02:42.642Z,45.20
2019-02-24T19:05:11.138Z,45.60
2019-02-24T19:07:39.622Z,45.50
2019-02-24T19:10:13.588Z,46.00
2019-02-24T19:12:41.386Z,46.40
2019-02-24T19:15:15.152Z,46.30
2019-02-24T19:17:43.629Z,46.70
2019-02-24T19:20:14.772Z,46.80
2019-02-24T19:22:44.247Z,47.10
2019-02-24T19:25:12.810Z,47.60
2019-02-24T19:27:41.297Z,47.80
2019-02-24T19:30:12.428Z,48.30
2019-02-24T19:32:40.940Z,48.50
2019-02-24T19:35:11.031Z,48.40
2019-02-24T19:37:39.539Z,48.80
2019-02-24T19:40:16.242Z,49.20
2019-02-24T19:42:44.727Z,49.70
2019-02-24T19:45:15.806Z,49.30
2019-02-24T19:47:44.283Z,49.60
2019-02-24T19:50:17.203Z,49.50
2019-02-24T19:52:45.686Z,49.70
2019-02-24T19:55:18.648Z,50.40
2019-02-24T19:57:47.209Z,50.50
2019-02-24T20:00:21.136Z,50.40
2019-02-24T20:02:48.929Z,50.40
2019-02-24T20:05:17.508Z,50.60
2019-02-24T20:07:46.173Z,50.70
2019-02-24T20:10:20.474Z,50.50
2019-02-24T20:12:48.958Z,50.80
2019-02-24T20:15:17.660Z,51.10
2019-02-24T20:17:46.170Z,51.50
2019-02-24T20:20:16.008Z,51.60
2019-02-24T20:22:44.517Z,51.00
2019-02-24T20:25:14.375Z,50.80
2019-02-24T20:27:47.735Z,51.60
2019-02-24T20:30:21.867Z,51.50
2019-02-24T20:32:50.374Z,51.40
2019-02-24T20:35:18.989Z,51.90
2019-02-24T20:37:47.475Z,52.00
2019-02-24T20:40:16.004Z,52.10
2019-02-24T20:42:44.485Z,52.10
2019-02-24T20:45:15.209Z,51.60
2019-02-24T20:47:50.330Z,51.10
2019-02-24T20:50:24.454Z,50.90
2019-02-24T20:52:53.782Z,50.90
2019-02-24T20:55:22.323Z,51.00
2019-02-24T20:57:50.831Z,50.60
2019-02-24T21:00:31.339Z,51.30
2019-02-24T21:03:01.356Z,51.40
2019-02-24T21:05:30.547Z,51.20
2019-02-24T21:07:59.179Z,51.10
2019-02-24T21:10:27.755Z,51.20
2019-02-24T21:12:56.273Z,51.40
2019-02-24T21:15:24.752Z,52.10
2019-02-24T21:17:53.251Z,51.70
2019-02-24T21:20:32.753Z,51.60
2019-02-24T21:23:01.385Z,51.70
2019-02-24T21:25:29.965Z,52.00
2019-02-24T21:28:00.414Z,53.30
2019-02-24T21:30:28.620Z,53.80
2019-02-24T21:32:57.115Z,53.70
2019-02-24T21:35:25.620Z,54.10
2019-02-24T21:37:54.088Z,53.80
2019-02-24T21:40:23.651Z,53.90
2019-02-24T21:42:52.296Z,54.00
2019-02-24T21:45:25.010Z,54.50
2019-02-24T21:47:53.492Z,55.10
2019-02-24T21:50:21.981Z,55.50
2019-02-24T21:52:50.454Z,56.50
2019-02-24T21:55:18.995Z,56.60
2019-02-24T21:57:47.486Z,56.30
2019-02-24T22:00:21.592Z,56.70
2019-02-24T22:02:50.085Z,56.70
2019-02-24T22:05:18.578Z,57.00
2019-02-24T22:07:47.088Z,57.50
2019-02-24T22:10:16.091Z,57.60
2019-02-24T22:12:44.598Z,57.30
2019-02-24T22:15:15.981Z,56.90
2019-02-24T22:17:44.502Z,56.70
2019-02-24T22:20:13.039Z,56.20
2019-02-24T22:22:41.510Z,56.40
2019-02-24T22:25:11.949Z,56.70
2019-02-24T22:27:40.423Z,57.20
2019-02-24T22:30:12.212Z,57.20
2019-02-24T22:32:40.709Z,57.30
2019-02-24T22:35:09.674Z,57.60
2019-02-24T22:37:38.174Z,57.30
2019-02-24T22:40:11.670Z,57.50
2019-02-24T22:42:40.305Z,57.70
2019-02-24T22:45:20.055Z,58.30
2019-02-24T22:47:48.519Z,58.70
2019-02-24T22:50:17.025Z,59.10
2019-02-24T22:52:45.947Z,59.10
2019-02-24T22:55:15.450Z,58.90
2019-02-24T22:57:43.939Z,58.10
2019-02-24T23:00:52.432Z,58.50
2019-02-24T23:03:22.250Z,58.80
2019-02-24T23:05:50.723Z,59.00
2019-02-24T23:08:19.276Z,59.00
2019-02-24T23:10:47.841Z,58.90
2019-02-24T23:13:16.334Z,59.30
2019-02-24T23:15:44.815Z,59.50
2019-02-24T23:18:13.283Z,59.00
2019-02-24T23:20:41.766Z,59.10
2019-02-24T23:23:10.248Z,59.10
2019-02-24T23:25:38.745Z,59.40
2019-02-24T23:28:07.224Z,60.20
2019-02-24T23:30:35.806Z,60.40
2019-02-24T23:33:04.294Z,61.00
2019-02-24T23:35:32.858Z,61.10
2019-02-24T23:38:01.357Z,60.80
2019-02-24T23:40:29.826Z,60.50
2019-02-24T23:42:58.316Z,60.40
2019-02-24T23:45:26.794Z,60.60
2019-02-24T23:47:55.328Z,60.90
2019-02-24T23:50:23.834Z,61.10
2019-02-24T23:52:52.369Z,61.40
2019-02-24T23:55:20.838Z,61.50
2019-02-24T23:57:49.325Z,61.50
